Aérodrome :







RETROUVEZ-NOUS SUR...

 
LOGIN :

S'inscrire | Disclaimer

   EN    FR    IT 

 









Légende :    VFR   VFR Marginal   IFR   IFR Intensif   IFR Très Intensif
Visi : 
Plafond : 
>= 8 km
>= 3000ft
5 à 8 km
1000 à 3000 ft
1500m à 5 km
500 à 1000 ft
800 à 1500m
200 à 500 ft
< 800m
< 200 ft
Symboles :   Orages  Brouillard  Fortes neiges  Fortes précipitations  Vent > 20 kt






- Altitude de l'aérodrome : 496 ft
- Code IATA : YQX


CYQX - Gander

DERNIER METAR :
  • 180600Z 26008KT 12SM -SHSN SCT030 BKN048 OVC072 M04/M07 A2991 RMK SC3SC3AC2 CVCTV CLD EMBD SLP139

METARs EXPIRÉS :
  • 180500Z 25008KT 20SM SCT053 BKN083 M05/M07 A2992 RMK SC3AC4 SLP141
  • 180400Z 25006KT 20SM FEW200 FEW250 M05/M07 A2991 RMK CC1CI1 SLP137

TAF TAF CYQX
Valide du 18 à 06h jusqu'au 19 à 06h UTC


180538Z 1806/1906 25008KT P6SM SCT050 BKN080
TEMPO 1806/1808 5SM -SN OVC030
FM180800 32010G20KT 2SM -SN OVC015
TEMPO 1808/1813 6SM -SN OVC025
BECMG 1808/1810 31018G28KT
FM181300 34015G25KT P6SM BKN050
TEMPO 1813/1817 3SM -SN BKN015 OVC050
BECMG 1813/1815 31012G22KT
FM181700 30010G20KT P6SM SKC
BECMG 1821/1823 25012KT RMK NXT FCST BY 181200Z



MET'MAP, la Météo Aéronautique d'un coup d'oeil ! - Copyright ORBIFLY Décembre 2007 - Disclaimer

ORBIFLY MET'MAP TEAM :

Programmation & Développement : Alexandra Zaïnal
Sur une idée originale de : Baudouin d'Aumeries
Assistance à la programmation : Marc-Olivier Méhu
Soutien technique & logistique : Manuel Goepfert

Contact : metmap@orbifly.com




SOURCES & CREDITS :

   NOAA